sensor_id;sensor_type;location;lat;lon;timestamp;P1;durP1;ratioP1;P2;durP2;ratioP2
11616;SDS011;5864;52.998;9.068;2023-04-25T00:00:30;7.33;;;4.10;;
11616;SDS011;5864;52.998;9.068;2023-04-25T00:03:15;8.60;;;4.50;;
11616;SDS011;5864;52.998;9.068;2023-04-25T00:06:02;8.20;;;3.90;;
11616;SDS011;5864;52.998;9.068;2023-04-25T00:08:49;9.53;;;4.40;;
11616;SDS011;5864;52.998;9.068;2023-04-25T00:11:35;8.13;;;4.60;;
11616;SDS011;5864;52.998;9.068;2023-04-25T00:14:21;9.93;;;4.67;;
11616;SDS011;5864;52.998;9.068;2023-04-25T00:17:07;13.77;;;4.77;;
11616;SDS011;5864;52.998;9.068;2023-04-25T00:19:52;11.97;;;5.17;;
11616;SDS011;5864;52.998;9.068;2023-04-25T00:22:38;11.13;;;3.80;;
11616;SDS011;5864;52.998;9.068;2023-04-25T00:25:25;14.97;;;4.30;;
11616;SDS011;5864;52.998;9.068;2023-04-25T00:28:11;15.67;;;4.30;;
11616;SDS011;5864;52.998;9.068;2023-04-25T00:30:56;11.33;;;3.90;;
11616;SDS011;5864;52.998;9.068;2023-04-25T00:33:42;16.33;;;4.40;;
11616;SDS011;5864;52.998;9.068;2023-04-25T00:36:27;17.30;;;4.60;;
11616;SDS011;5864;52.998;9.068;2023-04-25T00:39:14;13.23;;;4.17;;
11616;SDS011;5864;52.998;9.068;2023-04-25T00:42:01;18.60;;;4.53;;
11616;SDS011;5864;52.998;9.068;2023-04-25T00:44:48;14.83;;;4.07;;
11616;SDS011;5864;52.998;9.068;2023-04-25T00:47:35;17.50;;;4.53;;
11616;SDS011;5864;52.998;9.068;2023-04-25T00:50:21;20.07;;;4.60;;
11616;SDS011;5864;52.998;9.068;2023-04-25T00:53:07;14.63;;;4.40;;
11616;SDS011;5864;52.998;9.068;2023-04-25T00:55:54;15.97;;;4.83;;
11616;SDS011;5864;52.998;9.068;2023-04-25T00:58:41;21.63;;;4.23;;
11616;SDS011;5864;52.998;9.068;2023-04-25T01:01:27;19.13;;;4.37;;
11616;SDS011;5864;52.998;9.068;2023-04-25T01:04:13;16.13;;;5.20;;
11616;SDS011;5864;52.998;9.068;2023-04-25T01:06:59;19.70;;;4.20;;
11616;SDS011;5864;52.998;9.068;2023-04-25T01:09:47;17.77;;;5.07;;
11616;SDS011;5864;52.998;9.068;2023-04-25T01:12:33;20.77;;;4.40;;
11616;SDS011;5864;52.998;9.068;2023-04-25T01:15:20;22.90;;;4.93;;
11616;SDS011;5864;52.998;9.068;2023-04-25T01:18:06;16.17;;;5.07;;
11616;SDS011;5864;52.998;9.068;2023-04-25T01:20:52;20.77;;;5.20;;
11616;SDS011;5864;52.998;9.068;2023-04-25T01:23:40;20.00;;;4.57;;
11616;SDS011;5864;52.998;9.068;2023-04-25T01:26:26;22.50;;;4.77;;
11616;SDS011;5864;52.998;9.068;2023-04-25T01:29:12;20.27;;;4.40;;
11616;SDS011;5864;52.998;9.068;2023-04-25T01:31:57;21.20;;;4.90;;
11616;SDS011;5864;52.998;9.068;2023-04-25T01:34:43;19.83;;;5.03;;
11616;SDS011;5864;52.998;9.068;2023-04-25T01:37:29;16.63;;;4.63;;
11616;SDS011;5864;52.998;9.068;2023-04-25T01:40:16;21.73;;;5.07;;
11616;SDS011;5864;52.998;9.068;2023-04-25T01:43:03;21.17;;;4.47;;
11616;SDS011;5864;52.998;9.068;2023-04-25T01:45:49;18.63;;;4.20;;
11616;SDS011;5864;52.998;9.068;2023-04-25T01:48:35;23.93;;;5.13;;
11616;SDS011;5864;52.998;9.068;2023-04-25T01:51:20;21.53;;;4.77;;
11616;SDS011;5864;52.998;9.068;2023-04-25T01:54:07;21.53;;;4.37;;
11616;SDS011;5864;52.998;9.068;2023-04-25T01:56:55;21.67;;;4.23;;
11616;SDS011;5864;52.998;9.068;2023-04-25T01:59:43;13.53;;;4.03;;
11616;SDS011;5864;52.998;9.068;2023-04-25T02:02:29;17.53;;;4.53;;
11616;SDS011;5864;52.998;9.068;2023-04-25T02:05:15;20.00;;;4.60;;
11616;SDS011;5864;52.998;9.068;2023-04-25T02:08:01;25.63;;;5.40;;
11616;SDS011;5864;52.998;9.068;2023-04-25T02:10:47;19.60;;;4.93;;
11616;SDS011;5864;52.998;9.068;2023-04-25T02:13:34;20.20;;;4.77;;
11616;SDS011;5864;52.998;9.068;2023-04-25T02:16:20;19.57;;;4.67;;
11616;SDS011;5864;52.998;9.068;2023-04-25T02:19:06;13.47;;;4.13;;
11616;SDS011;5864;52.998;9.068;2023-04-25T02:21:52;13.63;;;4.20;;
11616;SDS011;5864;52.998;9.068;2023-04-25T02:24:37;19.87;;;4.47;;
11616;SDS011;5864;52.998;9.068;2023-04-25T02:27:23;14.20;;;4.53;;
11616;SDS011;5864;52.998;9.068;2023-04-25T02:30:10;15.80;;;4.33;;
11616;SDS011;5864;52.998;9.068;2023-04-25T02:32:56;16.13;;;4.60;;
11616;SDS011;5864;52.998;9.068;2023-04-25T02:35:41;19.17;;;5.20;;
11616;SDS011;5864;52.998;9.068;2023-04-25T02:38:27;16.07;;;4.80;;
11616;SDS011;5864;52.998;9.068;2023-04-25T02:41:13;15.80;;;4.00;;
11616;SDS011;5864;52.998;9.068;2023-04-25T02:43:58;16.27;;;4.60;;
11616;SDS011;5864;52.998;9.068;2023-04-25T02:46:46;13.50;;;3.80;;
11616;SDS011;5864;52.998;9.068;2023-04-25T02:49:32;22.63;;;4.97;;
11616;SDS011;5864;52.998;9.068;2023-04-25T02:52:17;21.00;;;4.73;;
11616;SDS011;5864;52.998;9.068;2023-04-25T02:55:03;16.00;;;4.47;;
11616;SDS011;5864;52.998;9.068;2023-04-25T02:57:49;17.17;;;4.13;;
11616;SDS011;5864;52.998;9.068;2023-04-25T03:00:34;19.97;;;4.50;;
11616;SDS011;5864;52.998;9.068;2023-04-25T03:03:22;16.37;;;4.67;;
11616;SDS011;5864;52.998;9.068;2023-04-25T03:06:07;19.33;;;5.10;;
11616;SDS011;5864;52.998;9.068;2023-04-25T03:08:53;19.53;;;4.93;;
11616;SDS011;5864;52.998;9.068;2023-04-25T03:11:38;17.43;;;5.17;;
11616;SDS011;5864;52.998;9.068;2023-04-25T03:14:25;16.40;;;3.70;;
11616;SDS011;5864;52.998;9.068;2023-04-25T03:17:11;19.50;;;5.53;;
11616;SDS011;5864;52.998;9.068;2023-04-25T03:19:58;12.13;;;4.17;;
11616;SDS011;5864;52.998;9.068;2023-04-25T03:22:44;21.20;;;4.47;;
11616;SDS011;5864;52.998;9.068;2023-04-25T03:25:30;9.07;;;4.03;;
11616;SDS011;5864;52.998;9.068;2023-04-25T03:28:15;16.17;;;4.17;;
11616;SDS011;5864;52.998;9.068;2023-04-25T03:31:01;21.60;;;5.87;;
11616;SDS011;5864;52.998;9.068;2023-04-25T03:33:46;20.60;;;4.10;;
11616;SDS011;5864;52.998;9.068;2023-04-25T03:36:33;16.93;;;4.83;;
11616;SDS011;5864;52.998;9.068;2023-04-25T03:39:19;15.67;;;4.67;;
11616;SDS011;5864;52.998;9.068;2023-04-25T03:42:04;19.43;;;4.47;;
11616;SDS011;5864;52.998;9.068;2023-04-25T03:44:50;13.10;;;3.90;;
11616;SDS011;5864;52.998;9.068;2023-04-25T03:47:36;15.43;;;4.03;;
11616;SDS011;5864;52.998;9.068;2023-04-25T03:50:22;17.90;;;4.23;;
11616;SDS011;5864;52.998;9.068;2023-04-25T03:53:09;11.80;;;3.60;;
11616;SDS011;5864;52.998;9.068;2023-04-25T03:55:54;12.33;;;3.83;;
11616;SDS011;5864;52.998;9.068;2023-04-25T03:58:41;17.90;;;4.63;;
11616;SDS011;5864;52.998;9.068;2023-04-25T04:01:27;11.83;;;4.10;;
11616;SDS011;5864;52.998;9.068;2023-04-25T04:04:12;14.30;;;3.80;;
11616;SDS011;5864;52.998;9.068;2023-04-25T04:06:58;10.70;;;3.60;;
11616;SDS011;5864;52.998;9.068;2023-04-25T04:09:45;11.00;;;3.83;;
11616;SDS011;5864;52.998;9.068;2023-04-25T04:12:30;11.30;;;3.50;;
11616;SDS011;5864;52.998;9.068;2023-04-25T04:15:16;17.33;;;3.60;;
11616;SDS011;5864;52.998;9.068;2023-04-25T04:18:01;12.93;;;3.70;;
11616;SDS011;5864;52.998;9.068;2023-04-25T04:20:48;15.47;;;4.13;;
11616;SDS011;5864;52.998;9.068;2023-04-25T04:23:34;16.47;;;4.87;;
11616;SDS011;5864;52.998;9.068;2023-04-25T04:26:21;13.03;;;3.83;;
11616;SDS011;5864;52.998;9.068;2023-04-25T04:29:08;15.33;;;4.07;;
11616;SDS011;5864;52.998;9.068;2023-04-25T04:31:54;14.03;;;4.13;;
11616;SDS011;5864;52.998;9.068;2023-04-25T04:34:39;15.80;;;4.13;;
11616;SDS011;5864;52.998;9.068;2023-04-25T04:37:25;11.97;;;3.57;;
11616;SDS011;5864;52.998;9.068;2023-04-25T04:40:11;13.50;;;3.60;;
11616;SDS011;5864;52.998;9.068;2023-04-25T04:43:00;17.23;;;4.23;;
11616;SDS011;5864;52.998;9.068;2023-04-25T04:45:46;14.80;;;4.20;;
11616;SDS011;5864;52.998;9.068;2023-04-25T04:48:33;10.73;;;3.77;;
11616;SDS011;5864;52.998;9.068;2023-04-25T04:51:19;11.90;;;3.70;;
11616;SDS011;5864;52.998;9.068;2023-04-25T04:54:04;16.07;;;3.20;;
11616;SDS011;5864;52.998;9.068;2023-04-25T04:56:50;15.23;;;3.37;;
11616;SDS011;5864;52.998;9.068;2023-04-25T04:59:37;16.03;;;4.60;;
11616;SDS011;5864;52.998;9.068;2023-04-25T05:02:23;15.17;;;3.97;;
11616;SDS011;5864;52.998;9.068;2023-04-25T05:05:09;14.47;;;4.00;;
11616;SDS011;5864;52.998;9.068;2023-04-25T05:07:54;12.57;;;3.97;;
11616;SDS011;5864;52.998;9.068;2023-04-25T05:10:40;15.30;;;3.27;;
11616;SDS011;5864;52.998;9.068;2023-04-25T05:13:26;9.43;;;3.20;;
11616;SDS011;5864;52.998;9.068;2023-04-25T05:16:13;14.00;;;3.67;;
11616;SDS011;5864;52.998;9.068;2023-04-25T05:18:59;12.67;;;4.20;;
11616;SDS011;5864;52.998;9.068;2023-04-25T05:21:44;12.27;;;3.53;;
11616;SDS011;5864;52.998;9.068;2023-04-25T05:24:30;16.70;;;4.20;;
11616;SDS011;5864;52.998;9.068;2023-04-25T05:27:16;9.30;;;3.70;;
11616;SDS011;5864;52.998;9.068;2023-04-25T05:30:01;9.43;;;3.33;;
11616;SDS011;5864;52.998;9.068;2023-04-25T05:32:50;15.43;;;3.53;;
11616;SDS011;5864;52.998;9.068;2023-04-25T05:35:36;14.87;;;3.60;;
11616;SDS011;5864;52.998;9.068;2023-04-25T05:38:21;17.23;;;3.70;;
11616;SDS011;5864;52.998;9.068;2023-04-25T05:41:07;12.73;;;3.30;;
11616;SDS011;5864;52.998;9.068;2023-04-25T05:43:52;7.57;;;2.73;;
11616;SDS011;5864;52.998;9.068;2023-04-25T05:46:38;11.63;;;3.10;;
11616;SDS011;5864;52.998;9.068;2023-04-25T05:49:25;12.50;;;3.17;;
11616;SDS011;5864;52.998;9.068;2023-04-25T05:52:10;16.43;;;3.43;;
11616;SDS011;5864;52.998;9.068;2023-04-25T05:54:56;17.43;;;4.33;;
11616;SDS011;5864;52.998;9.068;2023-04-25T05:57:42;15.50;;;4.13;;
11616;SDS011;5864;52.998;9.068;2023-04-25T06:00:29;10.53;;;3.13;;
11616;SDS011;5864;52.998;9.068;2023-04-25T06:03:14;11.63;;;3.10;;
11616;SDS011;5864;52.998;9.068;2023-04-25T06:06:01;9.13;;;2.80;;
11616;SDS011;5864;52.998;9.068;2023-04-25T06:08:48;9.17;;;3.13;;
11616;SDS011;5864;52.998;9.068;2023-04-25T06:11:33;7.43;;;2.90;;
11616;SDS011;5864;52.998;9.068;2023-04-25T06:14:20;10.00;;;3.23;;
11616;SDS011;5864;52.998;9.068;2023-04-25T06:17:06;12.67;;;3.60;;
11616;SDS011;5864;52.998;9.068;2023-04-25T06:19:52;11.27;;;2.70;;
11616;SDS011;5864;52.998;9.068;2023-04-25T06:22:38;12.40;;;3.20;;
11616;SDS011;5864;52.998;9.068;2023-04-25T06:25:25;8.90;;;3.07;;
11616;SDS011;5864;52.998;9.068;2023-04-25T06:28:10;8.30;;;2.80;;
11616;SDS011;5864;52.998;9.068;2023-04-25T06:30:56;7.90;;;2.80;;
11616;SDS011;5864;52.998;9.068;2023-04-25T06:33:41;11.70;;;3.10;;
11616;SDS011;5864;52.998;9.068;2023-04-25T06:36:27;10.63;;;2.53;;
11616;SDS011;5864;52.998;9.068;2023-04-25T06:39:14;10.17;;;3.43;;
11616;SDS011;5864;52.998;9.068;2023-04-25T06:41:59;8.73;;;2.73;;
11616;SDS011;5864;52.998;9.068;2023-04-25T06:44:45;6.13;;;2.47;;
11616;SDS011;5864;52.998;9.068;2023-04-25T06:47:32;12.03;;;3.47;;
11616;SDS011;5864;52.998;9.068;2023-04-25T06:50:17;10.37;;;3.23;;
11616;SDS011;5864;52.998;9.068;2023-04-25T06:53:04;6.93;;;2.97;;
11616;SDS011;5864;52.998;9.068;2023-04-25T06:55:51;8.63;;;2.57;;
11616;SDS011;5864;52.998;9.068;2023-04-25T06:58:36;10.10;;;2.60;;
11616;SDS011;5864;52.998;9.068;2023-04-25T07:01:22;6.37;;;2.80;;
11616;SDS011;5864;52.998;9.068;2023-04-25T07:04:08;7.07;;;3.00;;
11616;SDS011;5864;52.998;9.068;2023-04-25T07:06:53;6.97;;;2.43;;
11616;SDS011;5864;52.998;9.068;2023-04-25T07:09:39;9.03;;;2.60;;
11616;SDS011;5864;52.998;9.068;2023-04-25T07:12:26;9.33;;;2.97;;
11616;SDS011;5864;52.998;9.068;2023-04-25T07:15:12;8.73;;;2.60;;
11616;SDS011;5864;52.998;9.068;2023-04-25T07:17:57;8.67;;;2.70;;
11616;SDS011;5864;52.998;9.068;2023-04-25T07:20:43;10.37;;;2.50;;
11616;SDS011;5864;52.998;9.068;2023-04-25T07:23:29;9.37;;;2.77;;
11616;SDS011;5864;52.998;9.068;2023-04-25T07:26:15;9.27;;;2.40;;
11616;SDS011;5864;52.998;9.068;2023-04-25T07:29:02;5.23;;;2.33;;
11616;SDS011;5864;52.998;9.068;2023-04-25T07:31:48;7.37;;;2.07;;
11616;SDS011;5864;52.998;9.068;2023-04-25T07:34:33;11.30;;;2.70;;
11616;SDS011;5864;52.998;9.068;2023-04-25T07:37:21;11.07;;;2.70;;
11616;SDS011;5864;52.998;9.068;2023-04-25T07:40:07;8.83;;;2.40;;
11616;SDS011;5864;52.998;9.068;2023-04-25T07:42:54;9.30;;;2.20;;
11616;SDS011;5864;52.998;9.068;2023-04-25T07:45:41;11.93;;;2.87;;
11616;SDS011;5864;52.998;9.068;2023-04-25T07:48:27;12.47;;;3.33;;
11616;SDS011;5864;52.998;9.068;2023-04-25T07:51:12;7.70;;;2.40;;
11616;SDS011;5864;52.998;9.068;2023-04-25T07:53:59;8.57;;;2.40;;
11616;SDS011;5864;52.998;9.068;2023-04-25T07:56:44;7.23;;;2.23;;
11616;SDS011;5864;52.998;9.068;2023-04-25T07:59:31;8.57;;;2.23;;
11616;SDS011;5864;52.998;9.068;2023-04-25T08:02:18;10.93;;;2.83;;
11616;SDS011;5864;52.998;9.068;2023-04-25T08:05:04;5.70;;;2.10;;
11616;SDS011;5864;52.998;9.068;2023-04-25T08:07:52;6.83;;;2.43;;
11616;SDS011;5864;52.998;9.068;2023-04-25T08:10:37;6.93;;;2.23;;
11616;SDS011;5864;52.998;9.068;2023-04-25T08:13:23;5.43;;;2.20;;
11616;SDS011;5864;52.998;9.068;2023-04-25T08:16:09;8.27;;;2.60;;
11616;SDS011;5864;52.998;9.068;2023-04-25T08:18:56;7.23;;;2.17;;
11616;SDS011;5864;52.998;9.068;2023-04-25T08:21:42;6.53;;;2.17;;
11616;SDS011;5864;52.998;9.068;2023-04-25T08:24:28;10.03;;;2.43;;
11616;SDS011;5864;52.998;9.068;2023-04-25T08:27:13;5.60;;;2.10;;
11616;SDS011;5864;52.998;9.068;2023-04-25T08:29:59;6.43;;;2.40;;
11616;SDS011;5864;52.998;9.068;2023-04-25T08:32:46;8.17;;;1.93;;
11616;SDS011;5864;52.998;9.068;2023-04-25T08:35:34;5.53;;;1.83;;
11616;SDS011;5864;52.998;9.068;2023-04-25T08:38:19;5.87;;;2.13;;
11616;SDS011;5864;52.998;9.068;2023-04-25T08:41:05;7.93;;;2.30;;
11616;SDS011;5864;52.998;9.068;2023-04-25T08:43:51;9.13;;;2.27;;
11616;SDS011;5864;52.998;9.068;2023-04-25T08:46:41;5.73;;;2.00;;
11616;SDS011;5864;52.998;9.068;2023-04-25T08:49:27;9.57;;;2.40;;
11616;SDS011;5864;52.998;9.068;2023-04-25T08:52:15;8.50;;;2.10;;
11616;SDS011;5864;52.998;9.068;2023-04-25T08:55:06;7.60;;;2.60;;
11616;SDS011;5864;52.998;9.068;2023-04-25T08:57:54;7.13;;;2.90;;
11616;SDS011;5864;52.998;9.068;2023-04-25T09:00:41;6.33;;;2.17;;
11616;SDS011;5864;52.998;9.068;2023-04-25T09:03:27;5.53;;;1.90;;
11616;SDS011;5864;52.998;9.068;2023-04-25T09:06:13;6.03;;;2.40;;
11616;SDS011;5864;52.998;9.068;2023-04-25T09:09:03;6.77;;;2.10;;
11616;SDS011;5864;52.998;9.068;2023-04-25T09:11:49;5.70;;;1.63;;
11616;SDS011;5864;52.998;9.068;2023-04-25T09:14:35;3.70;;;1.80;;
11616;SDS011;5864;52.998;9.068;2023-04-25T09:17:20;5.50;;;2.03;;
11616;SDS011;5864;52.998;9.068;2023-04-25T09:20:07;4.20;;;1.53;;
11616;SDS011;5864;52.998;9.068;2023-04-25T09:23:00;4.30;;;1.50;;
11616;SDS011;5864;52.998;9.068;2023-04-25T09:25:48;5.63;;;1.60;;
11616;SDS011;5864;52.998;9.068;2023-04-25T09:28:36;3.73;;;1.80;;
11616;SDS011;5864;52.998;9.068;2023-04-25T09:31:22;4.40;;;1.77;;
11616;SDS011;5864;52.998;9.068;2023-04-25T09:34:09;3.97;;;1.77;;
11616;SDS011;5864;52.998;9.068;2023-04-25T09:37:01;3.27;;;1.20;;
11616;SDS011;5864;52.998;9.068;2023-04-25T09:39:46;4.97;;;1.70;;
11616;SDS011;5864;52.998;9.068;2023-04-25T09:42:34;3.50;;;1.60;;
11616;SDS011;5864;52.998;9.068;2023-04-25T09:45:19;4.13;;;1.80;;
11616;SDS011;5864;52.998;9.068;2023-04-25T09:48:05;4.37;;;1.50;;
11616;SDS011;5864;52.998;9.068;2023-04-25T09:51:03;6.17;;;1.83;;
11616;SDS011;5864;52.998;9.068;2023-04-25T09:53:49;4.30;;;1.60;;
11616;SDS011;5864;52.998;9.068;2023-04-25T09:56:36;6.20;;;2.07;;
11616;SDS011;5864;52.998;9.068;2023-04-25T09:59:23;5.27;;;2.27;;
11616;SDS011;5864;52.998;9.068;2023-04-25T10:02:09;3.93;;;1.60;;
11616;SDS011;5864;52.998;9.068;2023-04-25T10:04:56;5.53;;;2.20;;
11616;SDS011;5864;52.998;9.068;2023-04-25T10:07:42;6.43;;;2.00;;
11616;SDS011;5864;52.998;9.068;2023-04-25T10:10:27;5.70;;;1.80;;
11616;SDS011;5864;52.998;9.068;2023-04-25T10:13:16;7.67;;;1.57;;
11616;SDS011;5864;52.998;9.068;2023-04-25T10:16:04;5.07;;;1.90;;
11616;SDS011;5864;52.998;9.068;2023-04-25T10:18:51;5.53;;;1.50;;
11616;SDS011;5864;52.998;9.068;2023-04-25T10:21:37;8.20;;;2.43;;
11616;SDS011;5864;52.998;9.068;2023-04-25T10:24:29;3.73;;;1.80;;
11616;SDS011;5864;52.998;9.068;2023-04-25T10:27:15;5.17;;;1.70;;
11616;SDS011;5864;52.998;9.068;2023-04-25T10:30:02;3.90;;;1.47;;
11616;SDS011;5864;52.998;9.068;2023-04-25T10:32:50;7.00;;;2.13;;
11616;SDS011;5864;52.998;9.068;2023-04-25T10:35:39;2.73;;;1.33;;
11616;SDS011;5864;52.998;9.068;2023-04-25T10:38:24;3.30;;;1.67;;
11616;SDS011;5864;52.998;9.068;2023-04-25T10:41:11;4.40;;;1.60;;
11616;SDS011;5864;52.998;9.068;2023-04-25T10:43:58;3.97;;;1.53;;
11616;SDS011;5864;52.998;9.068;2023-04-25T10:46:46;5.53;;;1.70;;
11616;SDS011;5864;52.998;9.068;2023-04-25T10:49:34;3.17;;;1.60;;
11616;SDS011;5864;52.998;9.068;2023-04-25T10:52:24;4.43;;;1.20;;
11616;SDS011;5864;52.998;9.068;2023-04-25T10:55:11;7.43;;;1.87;;
11616;SDS011;5864;52.998;9.068;2023-04-25T10:57:58;2.93;;;1.50;;
11616;SDS011;5864;52.998;9.068;2023-04-25T11:00:45;5.17;;;1.60;;
11616;SDS011;5864;52.998;9.068;2023-04-25T11:03:30;3.27;;;1.43;;
11616;SDS011;5864;52.998;9.068;2023-04-25T11:06:20;4.20;;;1.40;;
11616;SDS011;5864;52.998;9.068;2023-04-25T11:09:09;3.17;;;1.63;;
11616;SDS011;5864;52.998;9.068;2023-04-25T11:11:57;3.40;;;1.60;;
11616;SDS011;5864;52.998;9.068;2023-04-25T11:14:44;5.23;;;1.40;;
11616;SDS011;5864;52.998;9.068;2023-04-25T11:17:29;5.03;;;1.60;;
11616;SDS011;5864;52.998;9.068;2023-04-25T11:20:15;2.13;;;1.33;;
11616;SDS011;5864;52.998;9.068;2023-04-25T11:23:02;3.93;;;1.27;;
11616;SDS011;5864;52.998;9.068;2023-04-25T11:25:48;3.37;;;1.77;;
11616;SDS011;5864;52.998;9.068;2023-04-25T11:28:37;4.00;;;1.67;;
11616;SDS011;5864;52.998;9.068;2023-04-25T11:31:24;6.43;;;1.87;;
11616;SDS011;5864;52.998;9.068;2023-04-25T11:34:09;3.40;;;1.50;;
11616;SDS011;5864;52.998;9.068;2023-04-25T11:36:55;6.87;;;1.93;;
11616;SDS011;5864;52.998;9.068;2023-04-25T11:39:45;5.47;;;1.93;;
11616;SDS011;5864;52.998;9.068;2023-04-25T11:42:32;4.13;;;1.67;;
11616;SDS011;5864;52.998;9.068;2023-04-25T11:45:18;5.53;;;2.03;;
11616;SDS011;5864;52.998;9.068;2023-04-25T11:48:04;3.40;;;1.80;;
11616;SDS011;5864;52.998;9.068;2023-04-25T11:50:50;3.80;;;1.60;;
11616;SDS011;5864;52.998;9.068;2023-04-25T11:53:36;6.37;;;1.50;;
11616;SDS011;5864;52.998;9.068;2023-04-25T11:56:27;6.57;;;1.97;;
11616;SDS011;5864;52.998;9.068;2023-04-25T11:59:14;4.93;;;1.97;;
11616;SDS011;5864;52.998;9.068;2023-04-25T12:02:01;4.03;;;1.70;;
11616;SDS011;5864;52.998;9.068;2023-04-25T12:04:47;3.33;;;1.60;;
11616;SDS011;5864;52.998;9.068;2023-04-25T12:07:33;4.10;;;1.30;;
11616;SDS011;5864;52.998;9.068;2023-04-25T12:10:19;2.47;;;1.20;;
11616;SDS011;5864;52.998;9.068;2023-04-25T12:13:18;4.30;;;1.57;;
11616;SDS011;5864;52.998;9.068;2023-04-25T12:16:05;2.97;;;1.37;;
11616;SDS011;5864;52.998;9.068;2023-04-25T12:18:51;7.93;;;1.93;;
11616;SDS011;5864;52.998;9.068;2023-04-25T12:21:37;4.17;;;1.57;;
11616;SDS011;5864;52.998;9.068;2023-04-25T12:24:23;2.50;;;1.57;;
11616;SDS011;5864;52.998;9.068;2023-04-25T12:27:13;6.47;;;1.73;;
11616;SDS011;5864;52.998;9.068;2023-04-25T12:30:03;4.43;;;1.97;;
11616;SDS011;5864;52.998;9.068;2023-04-25T12:32:51;4.27;;;1.80;;
11616;SDS011;5864;52.998;9.068;2023-04-25T12:35:36;3.17;;;1.40;;
11616;SDS011;5864;52.998;9.068;2023-04-25T12:38:26;2.80;;;1.30;;
11616;SDS011;5864;52.998;9.068;2023-04-25T12:41:13;3.50;;;1.40;;
11616;SDS011;5864;52.998;9.068;2023-04-25T12:43:59;3.27;;;1.47;;
11616;SDS011;5864;52.998;9.068;2023-04-25T12:46:46;5.57;;;1.70;;
11616;SDS011;5864;52.998;9.068;2023-04-25T12:49:32;6.50;;;1.70;;
11616;SDS011;5864;52.998;9.068;2023-04-25T12:52:18;6.47;;;1.87;;
11616;SDS011;5864;52.998;9.068;2023-04-25T12:55:04;5.77;;;1.93;;
11616;SDS011;5864;52.998;9.068;2023-04-25T12:57:51;5.33;;;1.93;;
11616;SDS011;5864;52.998;9.068;2023-04-25T13:00:36;5.90;;;1.93;;
11616;SDS011;5864;52.998;9.068;2023-04-25T13:03:24;5.47;;;2.47;;
11616;SDS011;5864;52.998;9.068;2023-04-25T13:06:10;4.13;;;1.80;;
11616;SDS011;5864;52.998;9.068;2023-04-25T13:08:56;5.80;;;1.97;;
11616;SDS011;5864;52.998;9.068;2023-04-25T13:11:41;6.50;;;1.90;;
11616;SDS011;5864;52.998;9.068;2023-04-25T13:14:27;4.33;;;2.00;;
11616;SDS011;5864;52.998;9.068;2023-04-25T13:17:12;3.93;;;1.80;;
11616;SDS011;5864;52.998;9.068;2023-04-25T13:19:59;3.67;;;1.80;;
11616;SDS011;5864;52.998;9.068;2023-04-25T13:22:45;7.73;;;1.70;;
11616;SDS011;5864;52.998;9.068;2023-04-25T13:25:31;3.03;;;1.50;;
11616;SDS011;5864;52.998;9.068;2023-04-25T13:28:16;4.73;;;1.83;;
11616;SDS011;5864;52.998;9.068;2023-04-25T13:31:02;6.20;;;1.50;;
11616;SDS011;5864;52.998;9.068;2023-04-25T13:33:47;3.07;;;1.37;;
11616;SDS011;5864;52.998;9.068;2023-04-25T13:36:34;2.73;;;1.53;;
11616;SDS011;5864;52.998;9.068;2023-04-25T13:39:20;2.87;;;1.23;;
11616;SDS011;5864;52.998;9.068;2023-04-25T13:42:06;5.80;;;1.80;;
11616;SDS011;5864;52.998;9.068;2023-04-25T13:44:52;3.43;;;1.40;;
11616;SDS011;5864;52.998;9.068;2023-04-25T13:47:38;5.40;;;1.40;;
11616;SDS011;5864;52.998;9.068;2023-04-25T13:50:23;4.83;;;1.57;;
11616;SDS011;5864;52.998;9.068;2023-04-25T13:53:10;4.13;;;1.60;;
11616;SDS011;5864;52.998;9.068;2023-04-25T13:55:56;6.47;;;1.83;;
11616;SDS011;5864;52.998;9.068;2023-04-25T13:58:41;3.17;;;1.50;;
11616;SDS011;5864;52.998;9.068;2023-04-25T14:01:27;4.77;;;2.10;;
11616;SDS011;5864;52.998;9.068;2023-04-25T14:04:14;3.73;;;1.77;;
11616;SDS011;5864;52.998;9.068;2023-04-25T14:07:00;4.13;;;1.50;;
11616;SDS011;5864;52.998;9.068;2023-04-25T14:09:47;5.73;;;1.83;;
11616;SDS011;5864;52.998;9.068;2023-04-25T14:12:33;5.13;;;1.60;;
11616;SDS011;5864;52.998;9.068;2023-04-25T14:15:19;5.67;;;1.57;;
11616;SDS011;5864;52.998;9.068;2023-04-25T14:18:04;4.67;;;1.63;;
11616;SDS011;5864;52.998;9.068;2023-04-25T14:20:51;4.10;;;1.77;;
11616;SDS011;5864;52.998;9.068;2023-04-25T14:23:36;5.77;;;1.90;;
11616;SDS011;5864;52.998;9.068;2023-04-25T14:26:24;3.57;;;1.60;;
11616;SDS011;5864;52.998;9.068;2023-04-25T14:29:10;2.83;;;1.40;;
11616;SDS011;5864;52.998;9.068;2023-04-25T14:31:56;5.50;;;1.70;;
11616;SDS011;5864;52.998;9.068;2023-04-25T14:34:42;3.77;;;1.60;;
11616;SDS011;5864;52.998;9.068;2023-04-25T14:37:28;4.97;;;1.80;;
11616;SDS011;5864;52.998;9.068;2023-04-25T14:40:14;4.23;;;1.60;;
11616;SDS011;5864;52.998;9.068;2023-04-25T14:43:01;3.93;;;1.90;;
11616;SDS011;5864;52.998;9.068;2023-04-25T14:45:47;4.73;;;1.77;;
11616;SDS011;5864;52.998;9.068;2023-04-25T14:48:33;4.37;;;1.77;;
11616;SDS011;5864;52.998;9.068;2023-04-25T14:51:19;4.20;;;1.90;;
11616;SDS011;5864;52.998;9.068;2023-04-25T14:54:05;8.10;;;1.70;;
11616;SDS011;5864;52.998;9.068;2023-04-25T14:56:51;4.73;;;2.07;;
11616;SDS011;5864;52.998;9.068;2023-04-25T14:59:38;6.37;;;1.87;;
11616;SDS011;5864;52.998;9.068;2023-04-25T15:02:23;3.53;;;1.37;;
11616;SDS011;5864;52.998;9.068;2023-04-25T15:05:09;3.93;;;1.30;;
11616;SDS011;5864;52.998;9.068;2023-04-25T15:07:55;3.23;;;1.60;;
11616;SDS011;5864;52.998;9.068;2023-04-25T15:10:40;5.03;;;1.60;;
11616;SDS011;5864;52.998;9.068;2023-04-25T15:13:26;6.73;;;1.60;;
11616;SDS011;5864;52.998;9.068;2023-04-25T15:16:13;4.20;;;1.40;;
11616;SDS011;5864;52.998;9.068;2023-04-25T15:18:58;5.90;;;1.50;;
11616;SDS011;5864;52.998;9.068;2023-04-25T15:21:47;3.30;;;1.40;;
11616;SDS011;5864;52.998;9.068;2023-04-25T15:24:33;2.83;;;1.40;;
11616;SDS011;5864;52.998;9.068;2023-04-25T15:27:19;4.27;;;1.53;;
11616;SDS011;5864;52.998;9.068;2023-04-25T15:30:05;4.27;;;1.40;;
11616;SDS011;5864;52.998;9.068;2023-04-25T15:32:53;5.50;;;1.70;;
11616;SDS011;5864;52.998;9.068;2023-04-25T15:35:39;4.73;;;1.70;;
11616;SDS011;5864;52.998;9.068;2023-04-25T15:38:24;6.87;;;1.90;;
11616;SDS011;5864;52.998;9.068;2023-04-25T15:41:10;4.27;;;1.60;;
11616;SDS011;5864;52.998;9.068;2023-04-25T15:43:57;6.13;;;1.90;;
11616;SDS011;5864;52.998;9.068;2023-04-25T15:46:45;6.03;;;1.87;;
11616;SDS011;5864;52.998;9.068;2023-04-25T15:49:32;5.60;;;2.10;;
11616;SDS011;5864;52.998;9.068;2023-04-25T15:52:18;4.77;;;1.93;;
11616;SDS011;5864;52.998;9.068;2023-04-25T15:55:04;6.57;;;1.60;;
11616;SDS011;5864;52.998;9.068;2023-04-25T15:57:51;4.93;;;1.53;;
11616;SDS011;5864;52.998;9.068;2023-04-25T16:00:36;5.30;;;1.57;;
11616;SDS011;5864;52.998;9.068;2023-04-25T16:03:22;5.63;;;1.67;;
11616;SDS011;5864;52.998;9.068;2023-04-25T16:06:09;4.23;;;1.93;;
11616;SDS011;5864;52.998;9.068;2023-04-25T16:08:55;5.20;;;1.83;;
11616;SDS011;5864;52.998;9.068;2023-04-25T16:11:41;6.23;;;1.77;;
11616;SDS011;5864;52.998;9.068;2023-04-25T16:14:26;5.30;;;1.80;;
11616;SDS011;5864;52.998;9.068;2023-04-25T16:17:13;6.97;;;1.70;;
11616;SDS011;5864;52.998;9.068;2023-04-25T16:19:58;5.97;;;2.10;;
11616;SDS011;5864;52.998;9.068;2023-04-25T16:22:46;6.60;;;1.77;;
11616;SDS011;5864;52.998;9.068;2023-04-25T16:25:31;5.13;;;2.07;;
11616;SDS011;5864;52.998;9.068;2023-04-25T16:28:17;6.13;;;2.20;;
11616;SDS011;5864;52.998;9.068;2023-04-25T16:31:03;4.00;;;1.90;;
11616;SDS011;5864;52.998;9.068;2023-04-25T16:33:49;6.80;;;2.00;;
11616;SDS011;5864;52.998;9.068;2023-04-25T16:36:35;6.27;;;2.00;;
11616;SDS011;5864;52.998;9.068;2023-04-25T16:39:22;7.20;;;1.90;;
11616;SDS011;5864;52.998;9.068;2023-04-25T16:42:07;6.17;;;2.20;;
11616;SDS011;5864;52.998;9.068;2023-04-25T16:44:53;4.77;;;2.07;;
11616;SDS011;5864;52.998;9.068;2023-04-25T16:47:38;5.63;;;2.00;;
11616;SDS011;5864;52.998;9.068;2023-04-25T16:50:25;4.53;;;2.00;;